TimeEDT,TemperatureF,Dew PointF,Humidity,Sea Level PressureIn,VisibilityMPH,Wind Direction,Wind SpeedMPH,Gust SpeedMPH,PrecipitationIn,Events,Conditions,WindDirDegrees,DateUTC
12:52 AM,54.0,48.0,80,29.63,10.0,WSW,24.2,35.7,N/A,,Overcast,250,2012-10-15 04:52:00
1:52 AM,53.1,46.9,80,29.65,10.0,WSW,17.3,26.5,N/A,,Overcast,250,2012-10-15 05:52:00
2:52 AM,53.1,46.0,77,29.68,10.0,West,18.4,27.6,N/A,,Overcast,270,2012-10-15 06:52:00
3:52 AM,52.0,46.0,80,29.69,10.0,WSW,17.3,25.3,N/A,,Overcast,250,2012-10-15 07:52:00
4:52 AM,51.1,46.0,83,29.69,10.0,WSW,16.1,-,N/A,,Overcast,250,2012-10-15 08:52:00
5:52 AM,50.0,46.9,89,29.72,9.0,West,12.7,-,0.00,,Overcast,270,2012-10-15 09:52:00
6:52 AM,48.9,46.0,90,29.75,5.0,West,12.7,-,0.00,Rain,Light Rain,260,2012-10-15 10:52:00
7:52 AM,48.2,46.4,93,29.75,10.0,West,11.5,-,N/A,,Overcast,270,2012-10-15 11:52:00
8:13 AM,48.2,46.4,93,29.76,10.0,West,10.4,-,N/A,,Overcast,280,2012-10-15 12:13:00
8:52 AM,48.9,46.0,90,29.77,10.0,West,11.5,-,N/A,,Overcast,260,2012-10-15 12:52:00
9:52 AM,50.0,45.0,83,29.79,10.0,West,10.4,-,0.00,,Overcast,270,2012-10-15 13:52:00
10:44 AM,50.0,44.6,82,29.80,10.0,West,15.0,-,N/A,,Overcast,270,2012-10-15 14:44:00
10:52 AM,51.1,45.0,80,29.80,10.0,West,13.8,-,N/A,,Overcast,280,2012-10-15 14:52:00
11:52 AM,52.0,42.1,69,29.82,10.0,WNW,11.5,-,N/A,,Overcast,290,2012-10-15 15:52:00
12:23 PM,51.8,41.0,67,29.83,10.0,WNW,13.8,21.9,N/A,,Overcast,290,2012-10-15 16:23:00
12:33 PM,53.6,41.0,62,29.83,10.0,WNW,10.4,20.7,N/A,,Overcast,300,2012-10-15 16:33:00
12:48 PM,53.6,41.0,62,29.83,10.0,WNW,15.0,20.7,N/A,,Overcast,290,2012-10-15 16:48:00
12:52 PM,52.0,41.0,66,29.83,10.0,West,15.0,23.0,N/A,,Overcast,280,2012-10-15 16:52:00
1:52 PM,53.1,41.0,64,29.84,10.0,WNW,18.4,25.3,N/A,,Overcast,290,2012-10-15 17:52:00
2:52 PM,54.0,42.1,64,29.84,10.0,West,18.4,24.2,N/A,,Mostly Cloudy,270,2012-10-15 18:52:00
3:52 PM,52.0,42.1,69,29.86,10.0,WNW,18.4,-,N/A,,Overcast,290,2012-10-15 19:52:00
4:18 PM,51.8,42.8,71,29.87,10.0,West,15.0,20.7,N/A,,Overcast,260,2012-10-15 20:18:00
4:25 PM,51.8,42.8,71,29.87,10.0,WNW,13.8,-,N/A,,Overcast,290,2012-10-15 20:25:00
4:52 PM,51.1,41.0,68,29.88,10.0,West,16.1,23.0,N/A,,Overcast,280,2012-10-15 20:52:00
5:52 PM,50.0,41.0,71,29.90,10.0,NW,10.4,-,N/A,,Overcast,310,2012-10-15 21:52:00
6:17 PM,50.0,39.2,66,29.89,10.0,WNW,10.4,-,N/A,,Overcast,300,2012-10-15 22:17:00
6:52 PM,50.0,37.9,63,29.91,10.0,West,9.2,18.4,N/A,,Overcast,280,2012-10-15 22:52:00
7:52 PM,48.9,36.0,61,29.92,10.0,WNW,6.9,-,N/A,,Overcast,300,2012-10-15 23:52:00
8:52 PM,48.9,39.0,69,29.94,10.0,WNW,6.9,-,N/A,,Overcast,300,2012-10-16 00:52:00
9:52 PM,48.0,39.0,71,29.95,10.0,WNW,5.8,-,N/A,,Overcast,300,2012-10-16 01:52:00
10:52 PM,48.0,37.9,68,29.95,10.0,NW,6.9,-,N/A,,Overcast,310,2012-10-16 02:52:00
11:52 PM,48.0,37.9,68,29.95,10.0,NW,3.5,-,N/A,,Overcast,310,2012-10-16 03:52:00